Marshall, Washington
Current Conditions -  °F | °C
As of 6:53 AM on Wednesday 26 Nov 2014 (Local Time) from KGEG Reporting Station
Drizzle Drizzle  
Wind Chill: 34°   Ceiling: 200
Heat Index: 34°   Visibility: 0.12mi
Dew Point: 34°   Wind: 0mph
Humidity: 100%   Direction: NA
Pressure: 30.14"   Gusts: NA
Location:  47.56°N, 117.5°W
Report Text: KGEG 261453Z 00000KT 1/8SM R03/2000V4000FT -DZ FG VV002 01/01 A3014 RMK AO2 SFC VIS 1/2 DZB12 SLP226 VIS SE-SW 1/8 P0000 60000 T00110011 51000
Loading
Personal Weather Stations






























Interactive Weather Map New forecast layout! Learn more

10-Day Weather Forecast

Advertisements
Track Severe Weather on mobile